Terminal Aerodrome Forecast
Issued by NWS

Home | Current Version | Previous Version | Text Only | Print | Product List | Glossary On
Versions: 1 2 3 4 5 6 7 8 9 10 11 12 13 14 15 16 17 18 19 20 21 22 23 24 25 26 27 28 29 30 31 32 33
000
FTAK31 PANC 022339
TAFADQ
TAF
PADQ 022339Z 0300/0324 13010KT P6SM BKN035 OVC080
     FM030300 08007KT P6SM -SHRA SCT015 BKN025
     FM030900 04008KT 5SM -RA BR OVC015
     FM031200 05008KT 3SM -RA BR OVC008
     FM031800 12010KT 6SM -SHRA BKN035
     FM032200 08010KT 6SM -SHRA BKN025=

USA.gov is the U.S. government's official web portal to all federal, state and local government web resources and services.